Surry, Virginia
Current Conditions -  °F | °C
As of 6:58 PM on Sunday 25 Jan 2015 (Local Time) from KFAF Reporting Station
Clear Clear  
Wind Chill: 39°   Ceiling: Unl
Heat Index: 39°   Visibility: 10mi
Dew Point: 35°   Wind: 2mph
Humidity: 85%   Direction: 170°S
Pressure: 29.85"   Gusts: NA
Location:  37.14°N, 76.84°W
Report Text: KFAF 252358Z AUTO 17002KT 10SM CLR 04/02 A2985 RMK AO2 SLP111 T00400017 10110 20033 53003 $
Loading
Personal Weather Stations






























Interactive Weather Map New forecast layout! Learn more

10-Day Weather Forecast

Advertisements
Track Severe Weather on mobile